createdAt,value
2023-11-27T00:00:40.439Z,22.83
2023-11-27T00:03:08.295Z,21.83
2023-11-27T00:05:34.935Z,21.98
2023-11-27T00:08:01.423Z,23.05
2023-11-27T00:10:27.883Z,21.25
2023-11-27T00:12:59.896Z,23.30
2023-11-27T00:15:26.477Z,21.58
2023-11-27T00:17:53.968Z,21.17
2023-11-27T00:20:20.449Z,23.98
2023-11-27T00:22:46.929Z,22.70
2023-11-27T00:25:13.674Z,22.90
2023-11-27T00:27:40.229Z,21.60
2023-11-27T00:30:08.561Z,21.55
2023-11-27T00:32:35.706Z,23.85
2023-11-27T00:35:02.144Z,21.30
2023-11-27T00:37:28.584Z,20.23
2023-11-27T00:39:55.535Z,19.35
2023-11-27T00:42:21.995Z,13.07
2023-11-27T00:44:48.742Z,20.60
2023-11-27T00:47:15.209Z,20.52
2023-11-27T00:49:41.758Z,15.02
2023-11-27T00:52:08.454Z,19.38
2023-11-27T00:54:34.934Z,21.10
2023-11-27T00:57:01.625Z,21.05
2023-11-27T00:59:28.075Z,17.20
2023-11-27T01:01:54.716Z,17.98
2023-11-27T01:04:21.237Z,22.13
2023-11-27T01:06:52.205Z,21.45
2023-11-27T01:09:19.343Z,18.50
2023-11-27T01:11:45.805Z,20.15
2023-11-27T01:14:12.253Z,22.80
2023-11-27T01:16:38.721Z,23.80
2023-11-27T01:19:05.222Z,21.05
2023-11-27T01:21:32.284Z,18.67
2023-11-27T01:23:58.736Z,17.17
2023-11-27T01:26:25.429Z,19.35
2023-11-27T01:28:51.942Z,21.17
2023-11-27T01:31:18.475Z,21.10
2023-11-27T01:33:45.182Z,21.00
2023-11-27T01:36:12.408Z,20.85
2023-11-27T01:38:38.875Z,21.30
2023-11-27T01:41:05.510Z,18.15
2023-11-27T01:43:32.022Z,24.33
2023-11-27T01:46:25.801Z,20.02
2023-11-27T01:48:54.122Z,11.10
2023-11-27T01:51:25.313Z,16.95
2023-11-27T01:53:53.791Z,15.13
2023-11-27T01:56:21.660Z,18.05
2023-11-27T01:58:53.050Z,17.90
2023-11-27T02:01:19.733Z,20.83
2023-11-27T02:03:46.376Z,13.57
2023-11-27T02:06:13.637Z,16.23
2023-11-27T02:08:42.203Z,17.27
2023-11-27T02:11:08.670Z,12.60
2023-11-27T02:13:35.343Z,15.43
2023-11-27T02:16:02.383Z,16.30
2023-11-27T02:18:29.493Z,17.15
2023-11-27T02:21:05.747Z,16.20
2023-11-27T02:23:32.454Z,18.48
2023-11-27T02:25:59.084Z,15.07
2023-11-27T02:28:25.563Z,15.18
2023-11-27T02:30:52.116Z,19.98
2023-11-27T02:33:18.652Z,17.13
2023-11-27T02:35:45.073Z,14.13
2023-11-27T02:38:12.103Z,15.02
2023-11-27T02:40:38.521Z,13.30
2023-11-27T02:43:05.253Z,15.25
2023-11-27T02:45:33.107Z,13.32
2023-11-27T02:47:59.593Z,15.20
2023-11-27T02:50:26.039Z,13.00
2023-11-27T02:52:52.450Z,14.75
2023-11-27T02:55:18.951Z,13.95
2023-11-27T02:57:48.993Z,13.57
2023-11-27T03:00:16.540Z,15.35
2023-11-27T03:02:46.512Z,12.35
2023-11-27T03:05:13.143Z,13.07
2023-11-27T03:07:39.700Z,16.27
2023-11-27T03:10:08.106Z,12.65
2023-11-27T03:12:35.982Z,10.27
2023-11-27T03:15:02.587Z,12.77
2023-11-27T03:17:29.060Z,10.57
2023-11-27T03:19:55.495Z,12.82
2023-11-27T03:22:22.176Z,11.93
2023-11-27T03:24:48.700Z,10.30
2023-11-27T03:27:15.193Z,10.43
2023-11-27T03:29:41.702Z,12.85
2023-11-27T03:32:08.626Z,10.48
2023-11-27T03:34:35.142Z,10.07
2023-11-27T03:37:01.646Z,12.52
2023-11-27T03:39:28.713Z,10.60
2023-11-27T03:41:55.243Z,11.05
2023-11-27T03:44:21.842Z,11.55
2023-11-27T03:46:48.400Z,9.77
2023-11-27T03:49:14.960Z,10.93
2023-11-27T03:51:41.467Z,11.35
2023-11-27T03:54:12.317Z,11.30
2023-11-27T03:56:39.285Z,14.57
2023-11-27T03:59:05.731Z,14.35
2023-11-27T04:01:32.285Z,12.98
2023-11-27T04:03:59.476Z,11.23
2023-11-27T04:06:30.719Z,12.48
2023-11-27T04:08:57.211Z,11.50
2023-11-27T04:11:23.659Z,13.18
2023-11-27T04:13:50.095Z,10.63
2023-11-27T04:16:17.588Z,9.82
2023-11-27T04:18:44.251Z,9.65
2023-11-27T04:21:11.245Z,10.48
2023-11-27T04:23:37.764Z,11.55
2023-11-27T04:26:04.530Z,10.25
2023-11-27T04:28:31.044Z,8.55
2023-11-27T04:30:57.618Z,9.00
2023-11-27T04:33:24.157Z,6.57
2023-11-27T04:35:54.409Z,8.68
2023-11-27T04:38:21.936Z,7.63
2023-11-27T04:40:48.384Z,10.68
2023-11-27T04:43:14.826Z,8.18
2023-11-27T04:45:41.279Z,10.77
2023-11-27T04:48:08.117Z,7.78
2023-11-27T04:50:34.579Z,9.38
2023-11-27T04:53:01.171Z,8.73
2023-11-27T04:55:28.048Z,8.65
2023-11-27T04:57:54.531Z,6.63
2023-11-27T05:00:21.083Z,7.30
2023-11-27T05:02:47.611Z,9.63
2023-11-27T05:05:17.235Z,7.53
2023-11-27T05:07:43.727Z,7.90
2023-11-27T05:10:12.174Z,9.20
2023-11-27T05:12:38.764Z,6.82
2023-11-27T05:15:07.115Z,7.32
2023-11-27T05:17:33.680Z,6.57
2023-11-27T05:20:00.269Z,9.48
2023-11-27T05:22:27.082Z,7.93
2023-11-27T05:24:53.772Z,5.30
2023-11-27T05:27:20.276Z,7.03
2023-11-27T05:29:46.724Z,7.00
2023-11-27T05:32:13.192Z,7.13
2023-11-27T05:34:39.639Z,7.10
2023-11-27T05:37:09.712Z,8.10
2023-11-27T05:39:42.251Z,8.15
2023-11-27T05:42:12.898Z,8.30
2023-11-27T05:44:40.929Z,8.07
2023-11-27T05:47:07.451Z,7.82
2023-11-27T05:49:34.548Z,7.50
2023-11-27T05:52:01.208Z,7.68
2023-11-27T05:54:28.150Z,7.15
2023-11-27T05:56:55.577Z,8.73
2023-11-27T05:59:22.165Z,7.80
2023-11-27T06:01:48.844Z,6.65
2023-11-27T06:04:15.400Z,9.02
2023-11-27T06:06:41.879Z,5.90
2023-11-27T06:09:08.342Z,8.30
2023-11-27T06:11:35.493Z,7.90
2023-11-27T06:14:02.027Z,8.18
2023-11-27T06:16:29.466Z,5.43
2023-11-27T06:18:56.160Z,6.20
2023-11-27T06:21:23.858Z,7.00
2023-11-27T06:23:52.786Z,5.90
2023-11-27T06:26:19.610Z,6.00
2023-11-27T06:28:46.113Z,6.03
2023-11-27T06:31:12.671Z,6.10
2023-11-27T06:33:39.377Z,6.90
2023-11-27T06:36:06.527Z,7.47
2023-11-27T06:38:32.958Z,5.10
2023-11-27T06:40:59.710Z,4.75
2023-11-27T06:43:26.275Z,4.72
2023-11-27T06:45:53.697Z,6.47
2023-11-27T06:48:20.908Z,5.68
2023-11-27T06:50:48.725Z,5.38
2023-11-27T06:53:15.256Z,3.33
2023-11-27T06:55:41.721Z,4.35
2023-11-27T06:58:08.932Z,4.78
2023-11-27T07:00:38.774Z,5.40
2023-11-27T07:03:05.987Z,4.60
2023-11-27T07:05:32.614Z,4.07
2023-11-27T07:07:59.043Z,4.65
2023-11-27T07:10:26.513Z,3.85
2023-11-27T07:12:53.213Z,4.78
2023-11-27T07:15:19.709Z,5.15
2023-11-27T07:17:46.469Z,5.28
2023-11-27T07:20:19.596Z,16.65
2023-11-27T07:22:49.136Z,5.55
2023-11-27T07:25:18.207Z,6.53
2023-11-27T07:27:46.525Z,6.18
2023-11-27T07:30:13.567Z,5.85
2023-11-27T07:32:40.028Z,6.45
2023-11-27T07:35:06.985Z,18.30
2023-11-27T07:37:33.461Z,6.25
2023-11-27T07:40:00.125Z,6.13
2023-11-27T07:42:26.609Z,6.47
2023-11-27T07:44:54.065Z,7.60
2023-11-27T07:47:23.880Z,6.25
2023-11-27T07:49:50.524Z,7.82
2023-11-27T07:52:17.976Z,5.82
2023-11-27T07:54:44.644Z,6.72
2023-11-27T07:57:11.074Z,5.75
2023-11-27T07:59:37.525Z,6.82
2023-11-27T08:02:04.982Z,6.18
2023-11-27T08:04:33.961Z,6.88
2023-11-27T08:07:01.232Z,6.28
2023-11-27T08:09:28.413Z,6.07
2023-11-27T08:11:55.227Z,5.55
2023-11-27T08:14:22.411Z,5.78
2023-11-27T08:16:50.234Z,5.38
2023-11-27T08:19:18.181Z,6.95
2023-11-27T08:21:45.673Z,6.53
2023-11-27T08:24:14.923Z,6.38
2023-11-27T08:26:50.548Z,6.25
2023-11-27T08:29:18.594Z,8.23
2023-11-27T08:31:47.183Z,6.30
2023-11-27T08:34:14.394Z,6.38
2023-11-27T08:36:41.977Z,6.45
2023-11-27T08:39:12.184Z,6.50
2023-11-27T08:41:38.918Z,6.63
2023-11-27T08:44:09.505Z,5.57
2023-11-27T08:46:40.001Z,5.97
2023-11-27T08:49:06.559Z,6.35
2023-11-27T08:51:33.503Z,6.78
2023-11-27T08:53:59.954Z,5.85
2023-11-27T08:56:27.325Z,6.65
2023-11-27T08:58:53.863Z,5.43
2023-11-27T09:01:21.147Z,5.97
2023-11-27T09:03:47.678Z,6.13
2023-11-27T09:06:15.882Z,6.03
2023-11-27T09:08:42.319Z,5.90
2023-11-27T09:11:09.230Z,4.63
2023-11-27T09:13:35.696Z,6.60
2023-11-27T09:16:02.985Z,5.82
2023-11-27T09:18:29.534Z,5.38
2023-11-27T09:20:56.008Z,7.38
2023-11-27T09:23:22.544Z,6.75
2023-11-27T09:25:49.087Z,6.22
2023-11-27T09:28:15.629Z,6.65
2023-11-27T09:30:42.084Z,6.53
2023-11-27T09:33:08.630Z,8.00
2023-11-27T09:35:35.070Z,7.25
2023-11-27T09:38:01.926Z,5.78
2023-11-27T09:40:39.103Z,6.30
2023-11-27T09:43:05.972Z,8.68
2023-11-27T09:45:35.087Z,6.32
2023-11-27T09:48:05.733Z,6.03
2023-11-27T09:50:32.411Z,6.20
2023-11-27T09:53:07.491Z,5.65
2023-11-27T09:55:41.815Z,6.47
2023-11-27T09:58:11.872Z,7.53
2023-11-27T10:00:42.673Z,6.07
2023-11-27T10:03:09.516Z,6.70
2023-11-27T10:05:36.582Z,6.75
2023-11-27T10:08:04.829Z,6.82
2023-11-27T10:10:31.633Z,8.38
2023-11-27T10:13:00.384Z,9.10
2023-11-27T10:15:27.979Z,5.53
2023-11-27T10:18:06.273Z,6.28
2023-11-27T10:20:33.357Z,5.95
2023-11-27T10:23:00.231Z,6.72
2023-11-27T10:25:26.926Z,6.60
2023-11-27T10:27:58.901Z,8.65
2023-11-27T10:30:27.149Z,7.53
2023-11-27T10:32:53.753Z,6.28
2023-11-27T10:35:25.674Z,6.95
2023-11-27T10:37:56.142Z,7.20
2023-11-27T10:42:58.920Z,7.03
2023-11-27T10:45:26.519Z,5.95
2023-11-27T10:47:53.461Z,6.93
2023-11-27T10:50:23.651Z,6.45
2023-11-27T10:52:51.301Z,5.32
2023-11-27T10:55:19.890Z,7.53
2023-11-27T10:57:50.247Z,6.28
2023-11-27T11:00:31.496Z,6.82
2023-11-27T11:03:03.055Z,5.95
2023-11-27T11:05:39.498Z,6.75
2023-11-27T11:08:09.042Z,6.68
2023-11-27T11:10:37.612Z,5.70
2023-11-27T11:13:08.530Z,6.40
2023-11-27T11:16:02.676Z,6.88
2023-11-27T11:18:52.758Z,7.25
2023-11-27T11:21:31.750Z,5.85
2023-11-27T11:24:13.244Z,7.32
2023-11-27T11:27:03.402Z,6.68
2023-11-27T11:29:34.522Z,5.55
2023-11-27T11:32:04.757Z,5.70
2023-11-27T11:34:39.534Z,5.43
2023-11-27T11:37:08.504Z,5.95
2023-11-27T11:39:35.268Z,6.22
2023-11-27T11:42:04.422Z,5.20
2023-11-27T11:44:37.010Z,5.93
2023-11-27T11:47:09.542Z,6.05
2023-11-27T11:49:36.578Z,7.30
2023-11-27T11:52:11.627Z,5.43
2023-11-27T11:54:42.056Z,5.75
2023-11-27T11:57:22.338Z,6.22
2023-11-27T11:59:52.937Z,4.93
2023-11-27T12:02:26.526Z,7.60
2023-11-27T12:04:53.504Z,7.07
2023-11-27T12:07:21.323Z,6.40
2023-11-27T12:09:50.197Z,6.55
2023-11-27T12:12:21.071Z,9.18
2023-11-27T12:14:47.561Z,8.30
2023-11-27T12:17:20.531Z,12.45
2023-11-27T12:19:49.189Z,8.30
2023-11-27T12:22:15.797Z,8.15
2023-11-27T12:24:47.054Z,7.28
2023-11-27T12:27:14.249Z,7.43
2023-11-27T12:29:40.693Z,7.22
2023-11-27T12:32:08.277Z,6.68
2023-11-27T12:34:36.723Z,6.43
2023-11-27T12:37:03.452Z,7.78
2023-11-27T12:39:30.952Z,7.05
2023-11-27T12:42:03.002Z,7.00
2023-11-27T12:44:31.010Z,5.60
2023-11-27T12:47:01.293Z,8.18
2023-11-27T12:49:35.177Z,7.15
2023-11-27T12:52:11.966Z,12.73
2023-11-27T12:54:39.238Z,8.68
2023-11-27T12:57:10.373Z,7.72
2023-11-27T12:59:41.335Z,6.40
2023-11-27T13:02:08.253Z,7.05
2023-11-27T13:04:39.135Z,7.90
2023-11-27T13:07:10.745Z,12.43
2023-11-27T13:09:38.914Z,6.38
2023-11-27T13:12:16.434Z,8.68
2023-11-27T13:14:44.381Z,11.93
2023-11-27T13:17:19.993Z,7.03
2023-11-27T13:19:55.571Z,8.02
2023-11-27T13:22:23.787Z,8.45
2023-11-27T13:24:51.996Z,12.15
2023-11-27T13:27:22.009Z,9.35
2023-11-27T13:29:51.637Z,9.98
2023-11-27T13:32:18.746Z,7.63
2023-11-27T13:34:56.929Z,8.43
2023-11-27T13:37:24.454Z,8.23
2023-11-27T13:39:59.700Z,9.25
2023-11-27T13:42:29.557Z,10.50
2023-11-27T13:44:56.190Z,7.55
2023-11-27T13:47:22.857Z,10.77
2023-11-27T13:49:53.802Z,12.73
2023-11-27T13:52:20.412Z,9.02
2023-11-27T13:54:49.882Z,11.18
2023-11-27T13:57:28.374Z,8.55
2023-11-27T13:59:58.188Z,10.00
2023-11-27T14:02:38.664Z,31.48
2023-11-27T14:05:09.862Z,11.23
2023-11-27T14:07:42.299Z,13.55
2023-11-27T14:10:23.786Z,8.52
2023-11-27T14:12:57.724Z,8.73
2023-11-27T14:15:24.194Z,6.05
2023-11-27T14:18:12.825Z,6.82
2023-11-27T14:20:57.961Z,6.85
2023-11-27T14:23:24.421Z,5.45
2023-11-27T14:26:10.950Z,4.35
2023-11-27T14:28:44.470Z,4.90
2023-11-27T14:31:11.592Z,6.13
2023-11-27T14:33:38.503Z,7.00
2023-11-27T14:36:05.219Z,8.52
2023-11-27T14:38:31.663Z,8.70
2023-11-27T14:40:58.552Z,10.15
2023-11-27T14:43:30.308Z,7.22
2023-11-27T14:45:58.176Z,8.05
2023-11-27T14:48:31.664Z,9.23
2023-11-27T14:50:58.411Z,6.18
2023-11-27T14:53:24.858Z,8.40
2023-11-27T14:55:51.563Z,6.82
2023-11-27T14:58:18.319Z,8.35
2023-11-27T15:00:49.117Z,7.47
2023-11-27T15:03:20.905Z,5.70
2023-11-27T15:05:49.659Z,7.55
2023-11-27T15:08:19.067Z,6.72
2023-11-27T15:10:46.870Z,5.93
2023-11-27T15:13:13.372Z,5.90
2023-11-27T15:15:40.774Z,7.18
2023-11-27T15:18:07.773Z,4.53
2023-11-27T15:20:36.180Z,11.00
2023-11-27T15:23:05.099Z,9.10
2023-11-27T15:25:34.121Z,6.13
2023-11-27T15:28:01.289Z,6.07
2023-11-27T15:30:31.237Z,5.55
2023-11-27T15:32:58.658Z,5.97
2023-11-27T15:35:26.767Z,6.93
2023-11-27T15:37:53.397Z,4.80
2023-11-27T15:40:29.543Z,5.75
2023-11-27T15:42:56.500Z,6.25
2023-11-27T15:45:23.131Z,7.30
2023-11-27T15:47:50.663Z,6.30
2023-11-27T15:50:18.389Z,6.55
2023-11-27T15:52:51.054Z,6.22
2023-11-27T15:55:22.102Z,7.45
2023-11-27T15:57:48.554Z,5.13
2023-11-27T16:00:20.730Z,6.03
2023-11-27T16:02:48.312Z,9.43
2023-11-27T16:05:18.720Z,5.68
2023-11-27T16:07:45.676Z,6.97
2023-11-27T16:10:16.443Z,5.13
2023-11-27T16:12:43.945Z,9.35
2023-11-27T16:15:11.841Z,5.78
2023-11-27T16:17:52.864Z,7.07
2023-11-27T16:20:25.969Z,6.35
2023-11-27T16:22:52.722Z,8.10
2023-11-27T16:25:19.531Z,8.00
2023-11-27T16:27:46.799Z,8.05
2023-11-27T16:30:18.574Z,7.50
2023-11-27T16:32:46.459Z,10.43
2023-11-27T16:35:25.217Z,7.60
2023-11-27T16:37:52.603Z,6.30
2023-11-27T16:40:20.674Z,6.35
2023-11-27T16:42:51.719Z,9.00
2023-11-27T16:45:19.692Z,6.03
2023-11-27T16:47:52.170Z,7.07
2023-11-27T16:50:18.816Z,8.65
2023-11-27T16:52:46.757Z,7.82
2023-11-27T16:55:19.251Z,7.72
2023-11-27T16:57:50.863Z,7.70
2023-11-27T17:00:39.743Z,8.33
2023-11-27T17:03:10.760Z,6.97
2023-11-27T17:05:37.877Z,8.95
2023-11-27T17:08:04.696Z,5.85
2023-11-27T17:10:32.135Z,7.88
2023-11-27T17:12:59.741Z,7.67
2023-11-27T17:15:30.153Z,7.72
2023-11-27T17:17:56.749Z,6.45
2023-11-27T17:20:23.899Z,5.95
2023-11-27T17:23:00.393Z,6.40
2023-11-27T17:25:33.268Z,6.47
2023-11-27T17:28:00.284Z,5.82
2023-11-27T17:30:27.108Z,7.45
2023-11-27T17:32:53.903Z,5.38
2023-11-27T17:35:20.908Z,5.57
2023-11-27T17:37:47.546Z,7.20
2023-11-27T17:40:15.438Z,5.57
2023-11-27T17:42:46.617Z,3.53
2023-11-27T17:45:14.936Z,6.40
2023-11-27T17:47:42.888Z,6.10
2023-11-27T17:50:17.011Z,3.90
2023-11-27T17:52:45.006Z,5.43
2023-11-27T17:55:14.664Z,5.45
2023-11-27T17:57:42.278Z,7.53
2023-11-27T18:00:14.910Z,5.20
2023-11-27T18:02:46.945Z,6.07
2023-11-27T18:05:14.893Z,7.40
2023-11-27T18:07:47.464Z,10.52
2023-11-27T18:10:14.134Z,8.05
2023-11-27T18:12:41.612Z,8.95
2023-11-27T18:15:09.580Z,6.97
2023-11-27T18:17:39.084Z,7.03
2023-11-27T18:20:09.810Z,7.10
2023-11-27T18:22:37.385Z,7.13
2023-11-27T18:25:06.056Z,6.97
2023-11-27T18:27:33.416Z,6.93
2023-11-27T18:29:59.920Z,8.43
2023-11-27T18:32:27.051Z,6.95
2023-11-27T18:34:55.070Z,7.18
2023-11-27T18:37:23.928Z,6.00
2023-11-27T18:39:50.596Z,7.00
2023-11-27T18:42:17.477Z,6.90
2023-11-27T18:44:44.039Z,9.48
2023-11-27T18:47:10.574Z,9.30
2023-11-27T18:49:37.740Z,8.43
2023-11-27T18:52:04.513Z,7.13
2023-11-27T18:54:30.979Z,7.28
2023-11-27T18:56:57.455Z,8.40
2023-11-27T18:59:23.962Z,9.30
2023-11-27T19:01:50.580Z,9.32
2023-11-27T19:04:17.124Z,8.77
2023-11-27T19:06:47.000Z,10.35
2023-11-27T19:09:19.666Z,10.82
2023-11-27T19:11:46.346Z,7.82
2023-11-27T19:14:13.100Z,8.93
2023-11-27T19:16:39.723Z,11.03
2023-11-27T19:19:08.654Z,12.27
2023-11-27T19:21:36.146Z,14.27
2023-11-27T19:24:02.934Z,14.10
2023-11-27T19:26:29.462Z,16.98
2023-11-27T19:28:57.340Z,12.33
2023-11-27T19:31:23.850Z,18.77
2023-11-27T19:33:50.546Z,9.32
2023-11-27T19:36:26.324Z,17.02
2023-11-27T19:38:52.945Z,11.25
2023-11-27T19:41:19.488Z,11.17
2023-11-27T19:43:46.051Z,16.02
2023-11-27T19:46:12.609Z,15.07
2023-11-27T19:48:43.957Z,14.93
2023-11-27T19:51:11.180Z,14.13
2023-11-27T19:53:40.630Z,13.17
2023-11-27T19:56:09.423Z,15.35
2023-11-27T19:58:36.603Z,13.35
2023-11-27T20:01:06.860Z,13.43
2023-11-27T20:03:34.116Z,10.75
2023-11-27T20:06:01.453Z,7.83
2023-11-27T20:08:27.858Z,9.25
2023-11-27T20:10:54.486Z,8.40
2023-11-27T20:13:21.127Z,10.05
2023-11-27T20:15:47.942Z,7.07
2023-11-27T20:18:16.129Z,8.73
2023-11-27T20:20:45.082Z,8.18
2023-11-27T20:23:12.149Z,9.63
2023-11-27T20:25:40.066Z,9.57
2023-11-27T20:28:07.646Z,8.20
2023-11-27T20:30:34.152Z,7.93
2023-11-27T20:33:01.502Z,9.02
2023-11-27T20:35:29.537Z,8.88
2023-11-27T20:37:56.054Z,10.98
2023-11-27T20:40:24.282Z,8.10
2023-11-27T20:42:52.554Z,8.10
2023-11-27T20:45:19.118Z,9.55
2023-11-27T20:47:45.834Z,8.13
2023-11-27T20:50:12.428Z,7.25
2023-11-27T20:52:40.005Z,6.80
2023-11-27T20:55:08.443Z,7.17
2023-11-27T20:57:35.804Z,5.80
2023-11-27T21:00:06.109Z,7.25
2023-11-27T21:02:32.644Z,6.20
2023-11-27T21:05:00.149Z,5.38
2023-11-27T21:07:26.728Z,6.27
2023-11-27T21:09:53.204Z,8.57
2023-11-27T21:12:21.301Z,7.05
2023-11-27T21:14:47.872Z,13.07
2023-11-27T21:17:14.575Z,6.68
2023-11-27T21:19:56.288Z,8.90
2023-11-27T21:22:25.037Z,6.88
2023-11-27T21:24:54.437Z,3.70
2023-11-27T21:27:21.098Z,5.72
2023-11-27T21:29:47.749Z,8.27
2023-11-27T21:32:15.277Z,6.90
2023-11-27T21:34:45.131Z,7.60
2023-11-27T21:37:11.869Z,8.50
2023-11-27T21:39:38.400Z,6.53
2023-11-27T21:42:05.154Z,5.30
2023-11-27T21:44:31.785Z,6.97
2023-11-27T21:46:58.542Z,5.43
2023-11-27T21:49:25.073Z,7.75
2023-11-27T21:51:51.673Z,8.10
2023-11-27T21:54:18.245Z,6.53
2023-11-27T21:56:44.775Z,6.83
2023-11-27T21:59:11.182Z,3.63
2023-11-27T22:01:37.801Z,8.10
2023-11-27T22:04:04.468Z,8.35
2023-11-27T22:06:32.108Z,5.43
2023-11-27T22:08:58.556Z,5.77
2023-11-27T22:11:25.006Z,6.15
2023-11-27T22:13:51.565Z,4.97
2023-11-27T22:16:20.457Z,7.53
2023-11-27T22:18:47.158Z,6.90
2023-11-27T22:21:13.597Z,6.03
2023-11-27T22:23:40.020Z,5.88
2023-11-27T22:26:06.918Z,4.82
2023-11-27T22:28:33.392Z,5.00
2023-11-27T22:30:59.833Z,5.97
2023-11-27T22:33:26.774Z,5.63
2023-11-27T22:35:53.374Z,4.15
2023-11-27T22:38:19.855Z,3.60
2023-11-27T22:40:46.393Z,4.72
2023-11-27T22:43:12.920Z,4.63
2023-11-27T22:45:39.853Z,4.93
2023-11-27T22:48:06.514Z,3.45
2023-11-27T22:50:32.972Z,3.85
2023-11-27T22:53:00.169Z,4.22
2023-11-27T22:55:26.797Z,4.60
2023-11-27T22:57:53.310Z,5.37
2023-11-27T23:00:23.528Z,4.80
2023-11-27T23:02:50.598Z,5.28
2023-11-27T23:05:17.766Z,4.40
2023-11-27T23:07:44.314Z,5.22
2023-11-27T23:10:10.891Z,5.20
2023-11-27T23:12:41.910Z,8.15
2023-11-27T23:15:12.763Z,6.85
2023-11-27T23:17:40.451Z,4.93
2023-11-27T23:20:07.667Z,6.32
2023-11-27T23:22:34.203Z,6.33
2023-11-27T23:25:01.416Z,6.85
2023-11-27T23:27:27.912Z,9.45
2023-11-27T23:29:54.436Z,7.03
2023-11-27T23:32:21.037Z,9.07
2023-11-27T23:34:47.511Z,7.43
2023-11-27T23:37:14.038Z,10.18
2023-11-27T23:39:40.537Z,8.65
2023-11-27T23:42:07.150Z,8.05
2023-11-27T23:44:33.686Z,8.93
2023-11-27T23:47:00.675Z,8.70
2023-11-27T23:49:29.952Z,7.38
2023-11-27T23:51:59.109Z,9.98
2023-11-27T23:54:29.501Z,8.02
2023-11-27T23:56:56.138Z,9.35
2023-11-27T23:59:22.847Z,8.33
